createdAt,value
2017-08-30T00:00:35.094Z,17.92
2017-08-30T00:03:01.528Z,17.94
2017-08-30T00:05:27.964Z,17.93
2017-08-30T00:07:55.116Z,17.85
2017-08-30T00:10:21.652Z,17.76
2017-08-30T00:12:48.190Z,17.78
2017-08-30T00:15:14.625Z,17.83
2017-08-30T00:17:41.059Z,17.85
2017-08-30T00:20:07.494Z,17.92
2017-08-30T00:22:33.929Z,17.97
2017-08-30T00:25:01.082Z,18.00
2017-08-30T00:27:27.709Z,18.01
2017-08-30T00:29:54.156Z,18.01
2017-08-30T00:32:20.543Z,18.00
2017-08-30T00:34:46.984Z,18.02
2017-08-30T00:37:13.459Z,17.96
2017-08-30T00:39:39.895Z,17.98
2017-08-30T00:42:07.136Z,17.98
2017-08-30T00:44:33.688Z,17.98
2017-08-30T00:47:00.125Z,17.98
2017-08-30T00:49:26.512Z,17.95
2017-08-30T00:51:52.994Z,17.93
2017-08-30T00:54:19.451Z,17.92
2017-08-30T00:56:45.963Z,17.93
2017-08-30T00:59:13.117Z,17.93
2017-08-30T01:01:39.550Z,17.96
2017-08-30T01:04:05.985Z,17.87
2017-08-30T01:06:32.524Z,17.93
2017-08-30T01:08:58.959Z,17.93
2017-08-30T01:11:25.398Z,17.95
2017-08-30T01:13:51.787Z,17.96
2017-08-30T01:16:19.083Z,17.95
2017-08-30T01:18:45.475Z,17.99
2017-08-30T01:21:11.953Z,17.98
2017-08-30T01:23:38.388Z,18.02
2017-08-30T01:26:04.820Z,18.08
2017-08-30T01:28:31.255Z,18.11
2017-08-30T01:30:57.690Z,18.13
2017-08-30T01:33:24.862Z,18.15
2017-08-30T01:35:51.243Z,18.20
2017-08-30T01:38:17.711Z,18.20
2017-08-30T01:40:44.100Z,18.17
2017-08-30T01:43:10.583Z,17.99
2017-08-30T01:45:37.015Z,18.22
2017-08-30T01:48:03.407Z,18.23
2017-08-30T01:50:30.602Z,18.23
2017-08-30T01:52:57.040Z,18.25
2017-08-30T01:55:23.476Z,18.23
2017-08-30T01:57:49.911Z,18.17
2017-08-30T02:00:16.306Z,18.10
2017-08-30T02:02:42.764Z,18.07
2017-08-30T02:05:09.213Z,18.05
2017-08-30T02:07:36.364Z,18.02
2017-08-30T02:10:02.798Z,18.00
2017-08-30T02:12:29.236Z,17.98
2017-08-30T02:14:55.670Z,17.86
2017-08-30T02:17:22.101Z,17.94
2017-08-30T02:19:48.538Z,17.95
2017-08-30T02:22:14.974Z,17.95
2017-08-30T02:24:42.227Z,17.94
2017-08-30T02:27:08.663Z,17.93
2017-08-30T02:29:35.098Z,17.89
2017-08-30T02:32:01.531Z,17.91
2017-08-30T02:34:27.980Z,17.90
2017-08-30T02:36:54.402Z,17.91
2017-08-30T02:39:20.836Z,17.91
2017-08-30T02:41:47.987Z,17.89
2017-08-30T02:44:14.423Z,17.89
2017-08-30T02:46:40.858Z,17.90
2017-08-30T02:49:07.293Z,17.92
2017-08-30T02:51:33.728Z,17.93
2017-08-30T02:54:00.162Z,17.91
2017-08-30T02:56:26.597Z,17.92
2017-08-30T02:58:53.851Z,17.91
2017-08-30T03:01:20.287Z,17.93
2017-08-30T03:03:46.722Z,17.96
2017-08-30T03:06:13.118Z,17.97
2017-08-30T03:08:39.592Z,18.00
2017-08-30T03:11:06.026Z,18.01
2017-08-30T03:13:32.461Z,18.00
2017-08-30T03:15:59.612Z,17.98
2017-08-30T03:18:26.004Z,17.94
2017-08-30T03:20:52.425Z,17.90
2017-08-30T03:23:18.917Z,17.85
2017-08-30T03:25:45.349Z,17.77
2017-08-30T03:28:11.787Z,17.62
2017-08-30T03:30:38.117Z,17.53
2017-08-30T03:33:05.475Z,17.33
2017-08-30T03:35:32.013Z,16.95
2017-08-30T03:37:58.450Z,17.27
2017-08-30T03:40:24.986Z,17.34
2017-08-30T03:42:51.420Z,17.34
2017-08-30T03:45:17.856Z,17.17
2017-08-30T03:47:44.295Z,17.06
2017-08-30T03:50:11.543Z,17.00
2017-08-30T03:52:37.981Z,17.09
2017-08-30T03:55:04.415Z,17.16
2017-08-30T03:57:30.953Z,17.23
2017-08-30T03:59:57.386Z,17.34
2017-08-30T04:02:23.821Z,17.35
2017-08-30T04:04:50.256Z,17.38
2017-08-30T04:07:17.407Z,17.40
2017-08-30T04:09:43.842Z,17.41
2017-08-30T04:12:10.278Z,17.42
2017-08-30T04:14:36.711Z,17.41
2017-08-30T04:17:03.147Z,17.31
2017-08-30T04:19:29.684Z,17.46
2017-08-30T04:21:56.119Z,17.35
2017-08-30T04:24:23.373Z,17.50
2017-08-30T04:26:49.808Z,17.49
2017-08-30T04:29:16.244Z,17.51
2017-08-30T04:31:42.679Z,17.55
2017-08-30T04:34:09.114Z,17.59
2017-08-30T04:36:35.548Z,17.63
2017-08-30T04:39:01.982Z,17.68
2017-08-30T04:41:29.236Z,17.72
2017-08-30T04:43:55.669Z,17.76
2017-08-30T04:46:22.106Z,17.80
2017-08-30T04:48:48.540Z,17.85
2017-08-30T04:51:14.976Z,17.90
2017-08-30T04:53:41.513Z,17.97
2017-08-30T04:56:07.958Z,18.03
2017-08-30T04:58:35.224Z,18.09
2017-08-30T05:01:01.639Z,18.16
2017-08-30T05:03:28.076Z,18.21
2017-08-30T05:05:54.512Z,18.29
2017-08-30T05:08:20.941Z,18.32
2017-08-30T05:10:47.376Z,18.36
2017-08-30T05:13:13.770Z,18.41
2017-08-30T05:15:40.964Z,18.48
2017-08-30T05:18:07.424Z,18.55
2017-08-30T05:20:33.835Z,18.63
2017-08-30T05:23:00.267Z,18.60
2017-08-30T05:25:26.656Z,18.72
2017-08-30T05:27:53.140Z,18.79
2017-08-30T05:30:19.572Z,18.88
2017-08-30T05:32:46.728Z,18.96
2017-08-30T05:35:13.127Z,19.03
2017-08-30T05:37:39.594Z,19.11
2017-08-30T05:40:06.373Z,19.18
2017-08-30T05:42:33.128Z,19.25
2017-08-30T05:44:59.616Z,19.33
2017-08-30T05:47:26.051Z,19.21
2017-08-30T05:49:52.488Z,19.32
2017-08-30T05:52:19.453Z,19.40
2017-08-30T05:54:45.876Z,19.45
2017-08-30T05:57:12.302Z,19.49
2017-08-30T05:59:38.737Z,19.49
2017-08-30T06:02:05.124Z,19.55
2017-08-30T06:04:31.607Z,19.61
2017-08-30T06:06:58.038Z,19.64
2017-08-30T06:09:24.475Z,19.59
2017-08-30T06:11:51.014Z,19.75
2017-08-30T06:14:17.455Z,19.84
2017-08-30T06:16:43.903Z,19.95
2017-08-30T06:19:10.786Z,19.99
2017-08-30T06:21:37.371Z,19.93
2017-08-30T06:24:03.805Z,20.21
2017-08-30T06:26:30.234Z,20.18
2017-08-30T06:28:56.871Z,20.40
2017-08-30T06:31:24.335Z,20.47
2017-08-30T06:33:50.787Z,20.60
2017-08-30T06:36:17.308Z,20.64
2017-08-30T06:38:44.150Z,20.75
2017-08-30T06:41:10.607Z,20.89
2017-08-30T06:43:37.321Z,20.96
2017-08-30T06:46:03.730Z,21.01
2017-08-30T06:48:30.209Z,21.09
2017-08-30T06:50:56.635Z,21.15
2017-08-30T06:53:23.068Z,21.22
2017-08-30T06:55:49.488Z,21.30
2017-08-30T06:58:15.932Z,21.42
2017-08-30T07:00:42.373Z,21.52
2017-08-30T07:03:08.865Z,21.54
2017-08-30T07:05:35.297Z,21.57
2017-08-30T07:08:01.778Z,21.69
2017-08-30T07:10:28.213Z,21.77
2017-08-30T07:12:54.649Z,21.88
2017-08-30T07:15:21.084Z,21.91
2017-08-30T07:17:47.519Z,22.01
2017-08-30T07:20:13.973Z,22.17
2017-08-30T07:22:40.387Z,22.23
2017-08-30T07:25:06.876Z,22.44
2017-08-30T07:27:33.356Z,22.55
2017-08-30T07:29:59.802Z,22.79
2017-08-30T07:32:26.229Z,23.00
2017-08-30T07:34:52.666Z,23.01
2017-08-30T07:37:19.103Z,23.13
2017-08-30T07:39:46.007Z,23.21
2017-08-30T07:42:12.478Z,23.25
2017-08-30T07:44:38.913Z,23.35
2017-08-30T07:47:05.348Z,23.44
2017-08-30T07:49:31.892Z,23.52
2017-08-30T07:51:58.321Z,23.67
2017-08-30T07:54:24.755Z,23.79
2017-08-30T07:56:51.496Z,23.92
2017-08-30T07:59:22.204Z,23.85
2017-08-30T08:01:48.666Z,23.86
2017-08-30T08:04:15.105Z,24.03
2017-08-30T08:06:43.791Z,24.19
2017-08-30T08:09:10.423Z,24.32
2017-08-30T08:11:37.376Z,24.49
2017-08-30T08:14:05.076Z,24.40
2017-08-30T08:16:31.597Z,24.49
2017-08-30T08:18:58.013Z,24.66
2017-08-30T08:21:25.676Z,24.85
2017-08-30T08:23:52.200Z,24.85
2017-08-30T08:26:18.643Z,24.80
2017-08-30T08:28:45.087Z,24.97
2017-08-30T08:31:11.505Z,25.11
2017-08-30T08:33:37.904Z,25.28
2017-08-30T08:36:06.939Z,25.32
2017-08-30T08:38:35.439Z,25.29
2017-08-30T08:41:02.098Z,25.29
2017-08-30T08:43:31.060Z,25.40
2017-08-30T08:45:59.046Z,25.32
2017-08-30T08:48:25.780Z,25.23
2017-08-30T08:50:52.397Z,25.16
2017-08-30T08:53:19.153Z,24.89
2017-08-30T08:55:45.800Z,24.98
2017-08-30T08:58:12.441Z,25.08
2017-08-30T09:00:40.123Z,25.26
2017-08-30T09:03:06.968Z,25.41
2017-08-30T09:05:33.496Z,25.52
2017-08-30T09:07:59.920Z,25.72
2017-08-30T09:10:26.412Z,25.66
2017-08-30T09:12:52.892Z,25.58
2017-08-30T09:15:19.739Z,25.40
2017-08-30T09:17:46.228Z,25.57
2017-08-30T09:20:12.711Z,25.53
2017-08-30T09:22:39.655Z,25.47
2017-08-30T09:25:06.296Z,25.60
2017-08-30T09:27:32.835Z,25.82
2017-08-30T09:29:59.751Z,25.97
2017-08-30T09:32:26.218Z,26.04
2017-08-30T09:34:53.060Z,26.20
2017-08-30T09:37:19.903Z,26.26
2017-08-30T09:39:46.338Z,26.30
2017-08-30T09:42:12.989Z,26.28
2017-08-30T09:44:41.669Z,26.38
2017-08-30T09:47:08.204Z,26.47
2017-08-30T09:49:34.753Z,26.59
2017-08-30T09:52:02.026Z,26.30
2017-08-30T09:54:28.479Z,26.23
2017-08-30T09:56:55.071Z,26.21
2017-08-30T09:59:22.095Z,26.17
2017-08-30T10:01:48.514Z,26.10
2017-08-30T10:04:14.954Z,26.22
2017-08-30T10:06:42.242Z,26.37
2017-08-30T10:09:08.681Z,25.95
2017-08-30T10:11:35.113Z,25.97
2017-08-30T10:14:01.566Z,26.30
2017-08-30T10:16:28.498Z,26.59
2017-08-30T10:18:55.234Z,26.88
2017-08-30T10:21:21.671Z,27.05
2017-08-30T10:23:48.573Z,27.14
2017-08-30T10:26:15.120Z,27.13
2017-08-30T10:28:41.592Z,27.21
2017-08-30T10:31:08.332Z,27.38
2017-08-30T10:33:34.740Z,27.36
2017-08-30T10:36:01.304Z,27.25
2017-08-30T10:38:27.740Z,27.08
2017-08-30T10:40:54.604Z,26.83
2017-08-30T10:43:21.020Z,26.78
2017-08-30T10:45:47.557Z,26.92
2017-08-30T10:48:14.300Z,26.75
2017-08-30T10:50:40.733Z,26.98
2017-08-30T10:53:07.169Z,26.83
2017-08-30T10:55:33.606Z,27.00
2017-08-30T10:58:00.447Z,27.04
2017-08-30T11:00:27.396Z,27.14
2017-08-30T11:02:53.931Z,27.14
2017-08-30T11:05:20.849Z,27.04
2017-08-30T11:07:47.312Z,27.17
2017-08-30T11:10:13.870Z,27.23
2017-08-30T11:12:40.883Z,27.39
2017-08-30T11:15:07.330Z,27.52
2017-08-30T11:17:33.976Z,27.30
2017-08-30T11:20:00.716Z,27.08
2017-08-30T11:22:27.561Z,27.36
2017-08-30T11:24:54.000Z,27.60
2017-08-30T11:27:20.760Z,28.09
2017-08-30T11:29:47.476Z,28.84
2017-08-30T11:32:14.225Z,29.55
2017-08-30T11:34:41.177Z,29.06
2017-08-30T11:37:08.115Z,28.47
2017-08-30T11:39:34.504Z,27.81
2017-08-30T11:42:00.984Z,27.61
2017-08-30T11:44:27.424Z,27.45
2017-08-30T11:46:54.158Z,27.28
2017-08-30T11:49:20.597Z,27.31
2017-08-30T11:51:46.994Z,27.24
2017-08-30T11:54:13.468Z,27.22
2017-08-30T11:56:39.903Z,27.22
2017-08-30T11:59:06.338Z,27.19
2017-08-30T12:01:32.715Z,27.71
2017-08-30T12:03:59.617Z,29.07
2017-08-30T12:06:26.154Z,30.22
2017-08-30T12:08:52.594Z,29.67
2017-08-30T12:11:19.024Z,29.12
2017-08-30T12:13:45.433Z,28.61
2017-08-30T12:16:12.500Z,28.19
2017-08-30T12:18:39.001Z,27.85
2017-08-30T12:21:05.687Z,27.87
2017-08-30T12:23:32.122Z,27.97
2017-08-30T12:25:58.807Z,29.00
2017-08-30T12:28:25.491Z,30.20
2017-08-30T12:30:51.833Z,30.25
2017-08-30T12:33:18.680Z,30.93
2017-08-30T12:35:45.094Z,31.73
2017-08-30T12:38:11.547Z,33.21
2017-08-30T12:40:37.983Z,34.25
2017-08-30T12:43:04.565Z,34.97
2017-08-30T12:45:31.486Z,35.60
2017-08-30T12:47:58.926Z,36.03
2017-08-30T12:50:28.021Z,36.73
2017-08-30T12:52:54.869Z,37.26
2017-08-30T12:55:21.246Z,37.73
2017-08-30T12:57:48.659Z,37.84
2017-08-30T13:00:15.743Z,37.47
2017-08-30T13:02:42.302Z,37.78
2017-08-30T13:05:08.789Z,38.72
2017-08-30T13:07:35.217Z,39.61
2017-08-30T13:10:01.656Z,39.51
2017-08-30T13:12:28.036Z,38.76
2017-08-30T13:14:54.628Z,38.22
2017-08-30T13:17:21.116Z,38.41
2017-08-30T13:19:47.494Z,38.62
2017-08-30T13:22:13.929Z,39.05
2017-08-30T13:24:40.774Z,38.65
2017-08-30T13:27:07.420Z,38.12
2017-08-30T13:29:34.057Z,38.44
2017-08-30T13:32:00.901Z,39.15
2017-08-30T13:34:27.437Z,40.03
2017-08-30T13:36:54.213Z,40.25
2017-08-30T13:39:20.839Z,41.35
2017-08-30T13:41:47.712Z,40.99
2017-08-30T13:44:14.301Z,40.65
2017-08-30T13:46:41.141Z,39.85
2017-08-30T13:49:07.785Z,40.32
2017-08-30T13:51:34.275Z,41.13
2017-08-30T13:54:00.884Z,41.80
2017-08-30T13:56:27.747Z,41.06
2017-08-30T13:58:54.257Z,40.71
2017-08-30T14:01:20.825Z,40.94
2017-08-30T14:03:47.402Z,39.86
2017-08-30T14:06:13.957Z,38.37
2017-08-30T14:08:41.258Z,36.20
2017-08-30T14:11:08.163Z,34.95
2017-08-30T14:13:34.697Z,32.56
2017-08-30T14:16:01.974Z,31.37
2017-08-30T14:18:29.085Z,30.72
2017-08-30T14:20:55.843Z,30.12
2017-08-30T14:23:22.482Z,29.78
2017-08-30T14:25:49.325Z,29.30
2017-08-30T14:28:15.761Z,28.71
2017-08-30T14:30:42.320Z,28.52
2017-08-30T14:33:09.450Z,28.19
2017-08-30T14:35:35.884Z,28.21
2017-08-30T14:38:02.422Z,28.22
2017-08-30T14:40:29.165Z,28.41
2017-08-30T14:42:55.606Z,28.44
2017-08-30T14:45:22.137Z,28.41
2017-08-30T14:47:48.878Z,28.43
2017-08-30T14:50:15.314Z,28.13
2017-08-30T14:52:41.851Z,27.69
2017-08-30T14:55:09.720Z,27.62
2017-08-30T14:57:36.358Z,27.53
2017-08-30T15:00:02.798Z,27.38
2017-08-30T15:02:29.843Z,27.25
2017-08-30T15:04:56.278Z,27.07
2017-08-30T15:07:22.710Z,27.08
2017-08-30T15:09:49.663Z,27.14
2017-08-30T15:12:16.710Z,27.08
2017-08-30T15:14:43.349Z,26.89
2017-08-30T15:17:09.785Z,26.88
2017-08-30T15:19:36.136Z,26.76
2017-08-30T15:22:02.552Z,26.80
2017-08-30T15:24:28.985Z,26.75
2017-08-30T15:26:55.421Z,26.73
2017-08-30T15:29:21.807Z,26.71
2017-08-30T15:31:48.243Z,26.64
2017-08-30T15:34:14.714Z,26.43
2017-08-30T15:36:41.159Z,26.49
2017-08-30T15:39:07.595Z,26.32
2017-08-30T15:41:34.030Z,26.27
2017-08-30T15:44:00.467Z,26.11
2017-08-30T15:46:26.852Z,26.26
2017-08-30T15:48:54.147Z,26.13
2017-08-30T15:51:20.588Z,26.00
2017-08-30T15:53:47.026Z,25.84
2017-08-30T15:56:13.465Z,25.79
2017-08-30T15:58:39.893Z,25.71
2017-08-30T16:01:06.330Z,25.70
2017-08-30T16:03:32.764Z,25.61
2017-08-30T16:05:59.159Z,25.55
2017-08-30T16:08:25.633Z,25.51
2017-08-30T16:10:52.021Z,25.52
2017-08-30T16:13:18.503Z,25.51
2017-08-30T16:15:45.753Z,25.39
2017-08-30T16:18:12.293Z,25.30
2017-08-30T16:20:38.728Z,25.23
2017-08-30T16:23:05.124Z,25.22
2017-08-30T16:25:31.547Z,25.19
2017-08-30T16:27:58.033Z,25.06
2017-08-30T16:30:24.595Z,24.98
2017-08-30T16:32:51.006Z,24.94
2017-08-30T16:35:17.393Z,24.92
2017-08-30T16:37:43.876Z,24.90
2017-08-30T16:40:10.310Z,24.81
2017-08-30T16:42:36.742Z,24.77
2017-08-30T16:45:03.139Z,24.81
2017-08-30T16:47:29.512Z,24.66
2017-08-30T16:49:56.823Z,24.42
2017-08-30T16:52:23.305Z,24.46
2017-08-30T16:54:49.744Z,24.50
2017-08-30T16:57:16.174Z,24.34
2017-08-30T16:59:42.608Z,24.16
2017-08-30T17:02:09.045Z,24.26
2017-08-30T17:04:35.432Z,24.20
2017-08-30T17:07:02.732Z,24.16
2017-08-30T17:09:29.151Z,24.13
2017-08-30T17:11:55.623Z,24.07
2017-08-30T17:14:22.139Z,23.95
2017-08-30T17:16:48.575Z,23.92
2017-08-30T17:19:15.009Z,23.85
2017-08-30T17:21:41.445Z,23.81
2017-08-30T17:24:08.593Z,23.71
2017-08-30T17:26:34.984Z,23.71
2017-08-30T17:29:01.466Z,23.73
2017-08-30T17:31:27.901Z,23.55
2017-08-30T17:33:54.391Z,23.60
2017-08-30T17:36:20.857Z,23.54
2017-08-30T17:38:47.308Z,23.47
2017-08-30T17:41:14.460Z,23.40
2017-08-30T17:43:40.895Z,23.33
2017-08-30T17:46:07.331Z,23.29
2017-08-30T17:48:33.766Z,23.24
2017-08-30T17:51:00.311Z,23.18
2017-08-30T17:53:26.839Z,23.10
2017-08-30T17:55:53.279Z,23.03
2017-08-30T17:58:20.379Z,22.95
2017-08-30T18:00:46.862Z,22.89
2017-08-30T18:03:13.315Z,22.83
2017-08-30T18:05:39.728Z,22.78
2017-08-30T18:08:06.167Z,22.75
2017-08-30T18:10:32.604Z,22.70
2017-08-30T18:12:59.037Z,22.66
2017-08-30T18:15:26.189Z,22.60
2017-08-30T18:17:52.642Z,22.57
2017-08-30T18:20:19.057Z,22.54
2017-08-30T18:22:45.492Z,22.43
2017-08-30T18:25:11.946Z,22.37
2017-08-30T18:27:38.365Z,22.19
2017-08-30T18:30:04.798Z,22.06
2017-08-30T18:32:32.039Z,21.96
2017-08-30T18:34:58.588Z,21.87
2017-08-30T18:37:25.023Z,21.81
2017-08-30T18:39:51.458Z,21.77
2017-08-30T18:42:17.894Z,21.79
2017-08-30T18:44:44.280Z,21.88
2017-08-30T18:47:10.763Z,21.88
2017-08-30T18:49:37.814Z,21.80
2017-08-30T18:52:04.205Z,21.61
2017-08-30T18:54:30.677Z,21.55
2017-08-30T18:56:57.118Z,21.60
2017-08-30T18:59:23.556Z,21.57
2017-08-30T19:01:50.006Z,21.42
2017-08-30T19:04:16.421Z,21.26
2017-08-30T19:06:43.676Z,21.06
2017-08-30T19:09:10.110Z,20.95
2017-08-30T19:11:36.501Z,21.00
2017-08-30T19:14:02.980Z,20.74
2017-08-30T19:16:29.418Z,20.82
2017-08-30T19:18:55.850Z,20.63
2017-08-30T19:21:22.306Z,20.60
2017-08-30T19:23:49.541Z,20.60
2017-08-30T19:26:15.974Z,20.69
2017-08-30T19:28:42.409Z,20.57
2017-08-30T19:31:08.845Z,20.55
2017-08-30T19:33:35.279Z,20.45
2017-08-30T19:36:01.713Z,20.32
2017-08-30T19:38:28.148Z,20.22
2017-08-30T19:40:55.402Z,20.08
2017-08-30T19:43:21.828Z,20.09
2017-08-30T19:45:48.291Z,20.06
2017-08-30T19:48:14.713Z,20.02
2017-08-30T19:50:41.143Z,19.95
2017-08-30T19:53:07.596Z,19.88
2017-08-30T19:55:34.012Z,19.87
2017-08-30T19:58:01.268Z,19.96
2017-08-30T20:00:27.658Z,20.06
2017-08-30T20:02:54.135Z,19.99
2017-08-30T20:05:20.528Z,20.17
2017-08-30T20:07:47.005Z,20.15
2017-08-30T20:10:13.397Z,20.14
2017-08-30T20:12:39.880Z,20.09
2017-08-30T20:15:06.309Z,19.89
2017-08-30T20:17:32.745Z,19.83
2017-08-30T20:19:59.122Z,19.70
2017-08-30T20:22:25.613Z,19.56
2017-08-30T20:24:52.049Z,19.47
2017-08-30T20:27:18.585Z,19.57
2017-08-30T20:29:45.021Z,19.62
2017-08-30T20:32:12.299Z,19.36
2017-08-30T20:34:38.833Z,19.52
2017-08-30T20:37:05.344Z,19.50
2017-08-30T20:39:31.784Z,19.53
2017-08-30T20:41:58.220Z,19.50
2017-08-30T20:44:24.658Z,19.48
2017-08-30T20:46:51.099Z,19.32
2017-08-30T20:49:18.240Z,19.21
2017-08-30T20:51:44.675Z,19.10
2017-08-30T20:54:11.112Z,19.03
2017-08-30T20:56:37.546Z,18.99
2017-08-30T20:59:03.980Z,19.08
2017-08-30T21:01:30.417Z,19.17
2017-08-30T21:03:56.853Z,19.12
2017-08-30T21:06:24.102Z,19.04
2017-08-30T21:08:50.543Z,19.02
2017-08-30T21:11:16.961Z,19.11
2017-08-30T21:13:43.405Z,19.18
2017-08-30T21:16:09.843Z,19.21
2017-08-30T21:18:36.382Z,19.22
2017-08-30T21:21:02.769Z,19.20
2017-08-30T21:23:30.027Z,19.17
2017-08-30T21:25:56.519Z,19.04
2017-08-30T21:28:22.906Z,18.87
2017-08-30T21:30:49.374Z,18.90
2017-08-30T21:33:15.810Z,18.93
2017-08-30T21:35:42.243Z,18.83
2017-08-30T21:38:08.682Z,18.80
2017-08-30T21:40:35.830Z,18.71
2017-08-30T21:43:02.265Z,18.55
2017-08-30T21:45:28.700Z,18.57
2017-08-30T21:47:55.122Z,18.62
2017-08-30T21:50:21.569Z,18.64
2017-08-30T21:52:48.005Z,18.66
2017-08-30T21:55:14.528Z,18.63
2017-08-30T21:57:41.593Z,18.44
2017-08-30T22:00:08.027Z,18.24
2017-08-30T22:02:34.464Z,18.08
2017-08-30T22:05:00.896Z,17.95
2017-08-30T22:07:27.332Z,18.05
2017-08-30T22:09:53.767Z,18.15
2017-08-30T22:12:20.203Z,18.16
2017-08-30T22:14:47.443Z,18.01
2017-08-30T22:17:13.894Z,17.89
2017-08-30T22:19:40.325Z,17.78
2017-08-30T22:22:06.760Z,17.71
2017-08-30T22:24:33.149Z,17.77
2017-08-30T22:26:59.629Z,17.71
2017-08-30T22:29:26.065Z,17.89
2017-08-30T22:31:53.421Z,18.02
2017-08-30T22:34:19.856Z,18.05
2017-08-30T22:36:46.293Z,18.11
2017-08-30T22:39:12.747Z,18.12
2017-08-30T22:41:39.116Z,18.06
2017-08-30T22:44:05.541Z,17.95
2017-08-30T22:46:32.030Z,17.94
2017-08-30T22:48:59.141Z,17.95
2017-08-30T22:51:25.573Z,17.99
2017-08-30T22:56:18.282Z,18.04
2017-08-30T22:58:44.717Z,18.08
2017-08-30T23:01:11.152Z,18.08
2017-08-30T23:03:37.588Z,18.10
2017-08-30T23:06:04.838Z,17.90
2017-08-30T23:08:31.277Z,18.06
2017-08-30T23:10:57.707Z,18.07
2017-08-30T23:13:24.089Z,18.07
2017-08-30T23:15:50.579Z,18.10
2017-08-30T23:18:17.015Z,18.12
2017-08-30T23:20:43.450Z,18.06
2017-08-30T23:23:10.704Z,17.93
2017-08-30T23:25:37.137Z,17.85
2017-08-30T23:28:03.574Z,17.89
2017-08-30T23:30:29.967Z,17.89
2017-08-30T23:32:56.443Z,17.77
2017-08-30T23:35:22.880Z,17.72
2017-08-30T23:37:49.266Z,17.65
2017-08-30T23:40:16.567Z,17.67
2017-08-30T23:42:43.005Z,17.81
2017-08-30T23:45:09.437Z,17.77
2017-08-30T23:47:35.873Z,17.72
2017-08-30T23:50:02.306Z,17.73
2017-08-30T23:52:28.742Z,17.66
2017-08-30T23:54:55.133Z,17.69
2017-08-30T23:57:22.432Z,17.69
2017-08-30T23:59:48.866Z,17.64
